sensor_id;sensor_type;location;lat;lon;timestamp;P1;durP1;ratioP1;P2;durP2;ratioP2
4808;SDS011;2418;49.930;8.606;2022-07-30T00:02:08;15.80;;;14.20;;
4808;SDS011;2418;49.930;8.606;2022-07-30T00:04:34;16.83;;;15.15;;
4808;SDS011;2418;49.930;8.606;2022-07-30T00:07:00;16.58;;;14.82;;
4808;SDS011;2418;49.930;8.606;2022-07-30T00:09:28;16.80;;;15.20;;
4808;SDS011;2418;49.930;8.606;2022-07-30T00:11:53;16.80;;;15.30;;
4808;SDS011;2418;49.930;8.606;2022-07-30T00:14:19;17.27;;;15.65;;
4808;SDS011;2418;49.930;8.606;2022-07-30T00:16:45;17.43;;;15.83;;
4808;SDS011;2418;49.930;8.606;2022-07-30T00:19:10;18.30;;;16.50;;
4808;SDS011;2418;49.930;8.606;2022-07-30T00:21:37;17.77;;;16.23;;
4808;SDS011;2418;49.930;8.606;2022-07-30T00:24:03;19.50;;;17.48;;
4808;SDS011;2418;49.930;8.606;2022-07-30T00:26:29;26.47;;;17.40;;
4808;SDS011;2418;49.930;8.606;2022-07-30T00:28:55;19.25;;;17.02;;
4808;SDS011;2418;49.930;8.606;2022-07-30T00:31:20;22.73;;;17.97;;
4808;SDS011;2418;49.930;8.606;2022-07-30T00:33:46;21.13;;;17.97;;
4808;SDS011;2418;49.930;8.606;2022-07-30T00:36:12;20.57;;;18.37;;
4808;SDS011;2418;49.930;8.606;2022-07-30T00:38:38;23.95;;;19.17;;
4808;SDS011;2418;49.930;8.606;2022-07-30T00:41:04;21.50;;;19.07;;
4808;SDS011;2418;49.930;8.606;2022-07-30T00:43:30;22.43;;;20.03;;
4808;SDS011;2418;49.930;8.606;2022-07-30T00:45:55;22.30;;;20.05;;
4808;SDS011;2418;49.930;8.606;2022-07-30T00:48:21;23.30;;;20.50;;
4808;SDS011;2418;49.930;8.606;2022-07-30T00:50:47;25.38;;;19.80;;
4808;SDS011;2418;49.930;8.606;2022-07-30T00:53:13;22.30;;;19.90;;
4808;SDS011;2418;49.930;8.606;2022-07-30T00:55:39;23.90;;;20.42;;
4808;SDS011;2418;49.930;8.606;2022-07-30T00:58:05;27.67;;;20.45;;
4808;SDS011;2418;49.930;8.606;2022-07-30T01:00:31;22.55;;;19.38;;
4808;SDS011;2418;49.930;8.606;2022-07-30T01:02:57;22.33;;;19.97;;
4808;SDS011;2418;49.930;8.606;2022-07-30T01:05:23;21.65;;;19.35;;
4808;SDS011;2418;49.930;8.606;2022-07-30T01:07:49;26.47;;;20.57;;
4808;SDS011;2418;49.930;8.606;2022-07-30T01:10:15;23.38;;;20.90;;
4808;SDS011;2418;49.930;8.606;2022-07-30T01:12:42;25.17;;;20.80;;
4808;SDS011;2418;49.930;8.606;2022-07-30T01:15:08;24.00;;;21.40;;
4808;SDS011;2418;49.930;8.606;2022-07-30T01:17:35;26.00;;;21.02;;
4808;SDS011;2418;49.930;8.606;2022-07-30T01:20:02;24.40;;;21.30;;
4808;SDS011;2418;49.930;8.606;2022-07-30T01:22:34;33.22;;;22.25;;
4808;SDS011;2418;49.930;8.606;2022-07-30T01:25:15;24.30;;;21.20;;
4808;SDS011;2418;49.930;8.606;2022-07-30T01:27:43;22.75;;;20.45;;
4808;SDS011;2418;49.930;8.606;2022-07-30T01:30:10;24.05;;;21.38;;
4808;SDS011;2418;49.930;8.606;2022-07-30T01:32:38;28.90;;;21.67;;
4808;SDS011;2418;49.930;8.606;2022-07-30T01:35:04;26.00;;;22.80;;
4808;SDS011;2418;49.930;8.606;2022-07-30T01:37:31;27.63;;;21.90;;
4808;SDS011;2418;49.930;8.606;2022-07-30T01:39:58;28.15;;;21.80;;
4808;SDS011;2418;49.930;8.606;2022-07-30T01:42:25;25.65;;;22.95;;
4808;SDS011;2418;49.930;8.606;2022-07-30T01:44:51;28.63;;;22.25;;
4808;SDS011;2418;49.930;8.606;2022-07-30T01:47:17;23.83;;;21.23;;
4808;SDS011;2418;49.930;8.606;2022-07-30T01:49:45;25.30;;;20.90;;
4808;SDS011;2418;49.930;8.606;2022-07-30T01:52:13;27.75;;;22.15;;
4808;SDS011;2418;49.930;8.606;2022-07-30T01:54:39;25.58;;;22.70;;
4808;SDS011;2418;49.930;8.606;2022-07-30T01:57:07;25.67;;;22.95;;
4808;SDS011;2418;49.930;8.606;2022-07-30T01:59:34;26.33;;;22.57;;
4808;SDS011;2418;49.930;8.606;2022-07-30T02:02:00;27.88;;;22.70;;
4808;SDS011;2418;49.930;8.606;2022-07-30T02:04:26;26.50;;;22.77;;
4808;SDS011;2418;49.930;8.606;2022-07-30T02:07:00;27.80;;;22.98;;
4808;SDS011;2418;49.930;8.606;2022-07-30T02:09:36;26.73;;;22.90;;
4808;SDS011;2418;49.930;8.606;2022-07-30T02:12:05;28.20;;;22.02;;
4808;SDS011;2418;49.930;8.606;2022-07-30T02:15:07;25.30;;;22.60;;
4808;SDS011;2418;49.930;8.606;2022-07-30T02:17:44;32.90;;;25.58;;
4808;SDS011;2418;49.930;8.606;2022-07-30T02:20:15;28.52;;;25.00;;
4808;SDS011;2418;49.930;8.606;2022-07-30T02:22:42;27.25;;;24.13;;
4808;SDS011;2418;49.930;8.606;2022-07-30T02:25:12;33.92;;;25.25;;
4808;SDS011;2418;49.930;8.606;2022-07-30T02:27:39;30.73;;;25.00;;
4808;SDS011;2418;49.930;8.606;2022-07-30T02:30:06;31.20;;;25.83;;
4808;SDS011;2418;49.930;8.606;2022-07-30T02:32:34;31.85;;;25.30;;
4808;SDS011;2418;49.930;8.606;2022-07-30T02:35:02;28.77;;;24.75;;
4808;SDS011;2418;49.930;8.606;2022-07-30T02:37:29;28.92;;;25.73;;
4808;SDS011;2418;49.930;8.606;2022-07-30T02:39:55;30.60;;;24.67;;
4808;SDS011;2418;49.930;8.606;2022-07-30T02:42:21;29.45;;;25.48;;
4808;SDS011;2418;49.930;8.606;2022-07-30T02:44:49;31.40;;;25.45;;
4808;SDS011;2418;49.930;8.606;2022-07-30T02:47:17;32.97;;;26.75;;
4808;SDS011;2418;49.930;8.606;2022-07-30T02:49:44;32.90;;;26.50;;
4808;SDS011;2418;49.930;8.606;2022-07-30T02:52:11;32.63;;;26.27;;
4808;SDS011;2418;49.930;8.606;2022-07-30T02:54:39;29.23;;;23.95;;
4808;SDS011;2418;49.930;8.606;2022-07-30T02:57:07;28.90;;;23.15;;
4808;SDS011;2418;49.930;8.606;2022-07-30T02:59:34;27.15;;;23.42;;
4808;SDS011;2418;49.930;8.606;2022-07-30T03:02:00;30.48;;;23.50;;
4808;SDS011;2418;49.930;8.606;2022-07-30T03:04:28;27.45;;;22.50;;
4808;SDS011;2418;49.930;8.606;2022-07-30T03:06:54;27.10;;;23.05;;
4808;SDS011;2418;49.930;8.606;2022-07-30T03:09:20;27.13;;;22.75;;
4808;SDS011;2418;49.930;8.606;2022-07-30T03:11:48;28.10;;;24.48;;
4808;SDS011;2418;49.930;8.606;2022-07-30T03:14:15;33.78;;;25.55;;
4808;SDS011;2418;49.930;8.606;2022-07-30T03:16:41;33.80;;;26.70;;
4808;SDS011;2418;49.930;8.606;2022-07-30T03:19:12;33.22;;;27.20;;
4808;SDS011;2418;49.930;8.606;2022-07-30T03:21:40;32.40;;;27.02;;
4808;SDS011;2418;49.930;8.606;2022-07-30T03:24:07;36.10;;;26.20;;
4808;SDS011;2418;49.930;8.606;2022-07-30T03:26:33;33.83;;;26.65;;
4808;SDS011;2418;49.930;8.606;2022-07-30T03:29:01;34.75;;;26.15;;
4808;SDS011;2418;49.930;8.606;2022-07-30T03:31:27;29.25;;;24.70;;
4808;SDS011;2418;49.930;8.606;2022-07-30T03:33:54;33.80;;;25.93;;
4808;SDS011;2418;49.930;8.606;2022-07-30T03:36:20;30.25;;;25.38;;
4808;SDS011;2418;49.930;8.606;2022-07-30T03:38:46;30.42;;;25.27;;
4808;SDS011;2418;49.930;8.606;2022-07-30T03:41:13;29.65;;;24.85;;
4808;SDS011;2418;49.930;8.606;2022-07-30T03:43:39;28.85;;;24.00;;
4808;SDS011;2418;49.930;8.606;2022-07-30T03:46:06;30.03;;;24.20;;
4808;SDS011;2418;49.930;8.606;2022-07-30T03:48:34;30.13;;;25.45;;
4808;SDS011;2418;49.930;8.606;2022-07-30T03:51:01;29.67;;;25.08;;
4808;SDS011;2418;49.930;8.606;2022-07-30T03:53:28;35.08;;;24.70;;
4808;SDS011;2418;49.930;8.606;2022-07-30T03:55:54;29.50;;;23.70;;
4808;SDS011;2418;49.930;8.606;2022-07-30T03:58:20;30.38;;;24.90;;
4808;SDS011;2418;49.930;8.606;2022-07-30T04:00:46;31.23;;;24.57;;
4808;SDS011;2418;49.930;8.606;2022-07-30T04:03:13;35.28;;;24.10;;
4808;SDS011;2418;49.930;8.606;2022-07-30T04:05:48;27.98;;;24.08;;
4808;SDS011;2418;49.930;8.606;2022-07-30T04:08:14;26.92;;;23.35;;
4808;SDS011;2418;49.930;8.606;2022-07-30T04:10:40;26.70;;;23.08;;
4808;SDS011;2418;49.930;8.606;2022-07-30T04:13:06;25.90;;;22.70;;
4808;SDS011;2418;49.930;8.606;2022-07-30T04:15:33;30.67;;;25.47;;
4808;SDS011;2418;49.930;8.606;2022-07-30T04:18:02;30.95;;;23.90;;
4808;SDS011;2418;49.930;8.606;2022-07-30T04:20:30;28.63;;;24.50;;
4808;SDS011;2418;49.930;8.606;2022-07-30T04:22:57;29.60;;;24.63;;
4808;SDS011;2418;49.930;8.606;2022-07-30T04:25:23;30.80;;;24.20;;
4808;SDS011;2418;49.930;8.606;2022-07-30T04:27:51;29.70;;;22.98;;
4808;SDS011;2418;49.930;8.606;2022-07-30T04:30:17;27.15;;;22.10;;
4808;SDS011;2418;49.930;8.606;2022-07-30T04:32:43;23.40;;;21.08;;
4808;SDS011;2418;49.930;8.606;2022-07-30T04:35:09;19.20;;;17.30;;
4808;SDS011;2418;49.930;8.606;2022-07-30T04:37:35;19.70;;;17.80;;
4808;SDS011;2418;49.930;8.606;2022-07-30T04:40:01;20.27;;;16.40;;
4808;SDS011;2418;49.930;8.606;2022-07-30T04:42:27;15.50;;;14.20;;
4808;SDS011;2418;49.930;8.606;2022-07-30T04:44:53;14.77;;;13.27;;
4808;SDS011;2418;49.930;8.606;2022-07-30T04:47:20;13.55;;;12.13;;
4808;SDS011;2418;49.930;8.606;2022-07-30T04:49:46;12.07;;;11.07;;
4808;SDS011;2418;49.930;8.606;2022-07-30T04:52:13;12.55;;;11.45;;
4808;SDS011;2418;49.930;8.606;2022-07-30T04:54:41;11.40;;;10.27;;
4808;SDS011;2418;49.930;8.606;2022-07-30T04:57:09;11.50;;;10.50;;
4808;SDS011;2418;49.930;8.606;2022-07-30T04:59:35;9.90;;;9.20;;
4808;SDS011;2418;49.930;8.606;2022-07-30T05:02:02;12.60;;;9.80;;
4808;SDS011;2418;49.930;8.606;2022-07-30T05:04:29;9.87;;;9.27;;
4808;SDS011;2418;49.930;8.606;2022-07-30T05:06:56;9.48;;;8.98;;
4808;SDS011;2418;49.930;8.606;2022-07-30T05:09:22;10.85;;;10.05;;
4808;SDS011;2418;49.930;8.606;2022-07-30T05:11:49;11.18;;;9.98;;
4808;SDS011;2418;49.930;8.606;2022-07-30T05:14:15;11.55;;;10.55;;
4808;SDS011;2418;49.930;8.606;2022-07-30T05:16:41;11.23;;;10.27;;
4808;SDS011;2418;49.930;8.606;2022-07-30T05:19:07;12.38;;;11.18;;
4808;SDS011;2418;49.930;8.606;2022-07-30T05:21:33;13.00;;;12.00;;
4808;SDS011;2418;49.930;8.606;2022-07-30T05:23:59;13.40;;;11.30;;
4808;SDS011;2418;49.930;8.606;2022-07-30T05:26:25;13.73;;;12.33;;
4808;SDS011;2418;49.930;8.606;2022-07-30T05:28:51;12.80;;;11.60;;
4808;SDS011;2418;49.930;8.606;2022-07-30T05:31:17;14.77;;;12.20;;
4808;SDS011;2418;49.930;8.606;2022-07-30T05:33:43;14.20;;;13.00;;
4808;SDS011;2418;49.930;8.606;2022-07-30T05:36:09;14.23;;;13.03;;
4808;SDS011;2418;49.930;8.606;2022-07-30T05:38:35;13.93;;;12.67;;
4808;SDS011;2418;49.930;8.606;2022-07-30T05:41:01;13.80;;;12.80;;
4808;SDS011;2418;49.930;8.606;2022-07-30T05:43:27;13.07;;;12.07;;
4808;SDS011;2418;49.930;8.606;2022-07-30T05:45:53;13.97;;;12.87;;
4808;SDS011;2418;49.930;8.606;2022-07-30T05:48:19;13.50;;;12.40;;
4808;SDS011;2418;49.930;8.606;2022-07-30T05:50:45;14.10;;;12.70;;
4808;SDS011;2418;49.930;8.606;2022-07-30T05:53:11;14.00;;;12.80;;
4808;SDS011;2418;49.930;8.606;2022-07-30T05:55:37;13.33;;;11.93;;
4808;SDS011;2418;49.930;8.606;2022-07-30T05:58:03;13.43;;;12.23;;
4808;SDS011;2418;49.930;8.606;2022-07-30T06:00:28;14.80;;;11.10;;
4808;SDS011;2418;49.930;8.606;2022-07-30T06:02:54;12.73;;;11.43;;
4808;SDS011;2418;49.930;8.606;2022-07-30T06:05:20;13.63;;;11.37;;
4808;SDS011;2418;49.930;8.606;2022-07-30T06:07:46;11.97;;;10.97;;
4808;SDS011;2418;49.930;8.606;2022-07-30T06:10:12;11.17;;;10.00;;
4808;SDS011;2418;49.930;8.606;2022-07-30T06:12:38;11.43;;;10.33;;
4808;SDS011;2418;49.930;8.606;2022-07-30T06:15:06;11.77;;;10.57;;
4808;SDS011;2418;49.930;8.606;2022-07-30T06:17:32;12.50;;;10.60;;
4808;SDS011;2418;49.930;8.606;2022-07-30T06:19:58;10.30;;;9.70;;
4808;SDS011;2418;49.930;8.606;2022-07-30T06:22:25;10.85;;;9.85;;
4808;SDS011;2418;49.930;8.606;2022-07-30T06:24:51;12.65;;;10.30;;
4808;SDS011;2418;49.930;8.606;2022-07-30T06:27:17;11.35;;;10.15;;
4808;SDS011;2418;49.930;8.606;2022-07-30T06:29:43;10.82;;;9.77;;
4808;SDS011;2418;49.930;8.606;2022-07-30T06:32:09;12.32;;;11.00;;
4808;SDS011;2418;49.930;8.606;2022-07-30T06:34:35;11.90;;;10.85;;
4808;SDS011;2418;49.930;8.606;2022-07-30T06:37:00;11.35;;;10.15;;
4808;SDS011;2418;49.930;8.606;2022-07-30T06:39:26;9.98;;;9.23;;
4808;SDS011;2418;49.930;8.606;2022-07-30T06:41:52;12.48;;;11.15;;
4808;SDS011;2418;49.930;8.606;2022-07-30T06:44:18;11.13;;;9.93;;
4808;SDS011;2418;49.930;8.606;2022-07-30T06:46:44;10.20;;;9.30;;
4808;SDS011;2418;49.930;8.606;2022-07-30T06:49:10;11.38;;;9.18;;
4808;SDS011;2418;49.930;8.606;2022-07-30T06:51:36;11.40;;;10.23;;
4808;SDS011;2418;49.930;8.606;2022-07-30T06:54:01;17.00;;;12.75;;
4808;SDS011;2418;49.930;8.606;2022-07-30T06:56:27;15.48;;;11.50;;
4808;SDS011;2418;49.930;8.606;2022-07-30T06:58:53;15.85;;;12.02;;
4808;SDS011;2418;49.930;8.606;2022-07-30T07:01:19;19.27;;;12.90;;
4808;SDS011;2418;49.930;8.606;2022-07-30T07:03:47;16.98;;;12.88;;
4808;SDS011;2418;49.930;8.606;2022-07-30T07:06:13;19.15;;;12.18;;
4808;SDS011;2418;49.930;8.606;2022-07-30T07:08:39;17.58;;;11.95;;
4808;SDS011;2418;49.930;8.606;2022-07-30T07:11:05;19.73;;;11.98;;
4808;SDS011;2418;49.930;8.606;2022-07-30T07:13:31;17.92;;;12.05;;
4808;SDS011;2418;49.930;8.606;2022-07-30T07:15:57;17.45;;;11.35;;
4808;SDS011;2418;49.930;8.606;2022-07-30T07:18:23;20.50;;;11.35;;
4808;SDS011;2418;49.930;8.606;2022-07-30T07:20:49;13.30;;;11.23;;
4808;SDS011;2418;49.930;8.606;2022-07-30T07:23:15;11.05;;;9.90;;
4808;SDS011;2418;49.930;8.606;2022-07-30T07:25:40;15.45;;;10.65;;
4808;SDS011;2418;49.930;8.606;2022-07-30T07:28:06;16.45;;;11.23;;
4808;SDS011;2418;49.930;8.606;2022-07-30T07:30:32;13.60;;;10.30;;
4808;SDS011;2418;49.930;8.606;2022-07-30T07:32:58;10.98;;;9.95;;
4808;SDS011;2418;49.930;8.606;2022-07-30T07:35:24;10.70;;;9.80;;
4808;SDS011;2418;49.930;8.606;2022-07-30T07:37:50;11.52;;;10.20;;
4808;SDS011;2418;49.930;8.606;2022-07-30T07:40:16;11.57;;;10.38;;
4808;SDS011;2418;49.930;8.606;2022-07-30T07:42:42;14.45;;;10.77;;
4808;SDS011;2418;49.930;8.606;2022-07-30T07:45:08;14.25;;;9.95;;
4808;SDS011;2418;49.930;8.606;2022-07-30T07:47:47;11.05;;;10.00;;
4808;SDS011;2418;49.930;8.606;2022-07-30T07:50:14;12.10;;;10.40;;
4808;SDS011;2418;49.930;8.606;2022-07-30T07:52:41;13.87;;;9.93;;
4808;SDS011;2418;49.930;8.606;2022-07-30T07:55:06;15.23;;;9.63;;
4808;SDS011;2418;49.930;8.606;2022-07-30T07:57:39;14.48;;;10.73;;
4808;SDS011;2418;49.930;8.606;2022-07-30T08:00:06;11.50;;;10.00;;
4808;SDS011;2418;49.930;8.606;2022-07-30T08:02:32;11.15;;;10.15;;
4808;SDS011;2418;49.930;8.606;2022-07-30T08:04:58;14.45;;;10.82;;
4808;SDS011;2418;49.930;8.606;2022-07-30T08:07:24;11.63;;;9.35;;
4808;SDS011;2418;49.930;8.606;2022-07-30T08:09:50;11.63;;;9.52;;
4808;SDS011;2418;49.930;8.606;2022-07-30T08:12:16;9.68;;;8.88;;
4808;SDS011;2418;49.930;8.606;2022-07-30T08:14:42;10.18;;;9.10;;
4808;SDS011;2418;49.930;8.606;2022-07-30T08:17:08;14.18;;;8.82;;
4808;SDS011;2418;49.930;8.606;2022-07-30T08:19:34;10.93;;;9.93;;
4808;SDS011;2418;49.930;8.606;2022-07-30T08:22:00;11.27;;;9.10;;
4808;SDS011;2418;49.930;8.606;2022-07-30T08:24:26;9.93;;;8.93;;
4808;SDS011;2418;49.930;8.606;2022-07-30T08:26:52;10.37;;;9.43;;
4808;SDS011;2418;49.930;8.606;2022-07-30T08:29:18;12.90;;;9.20;;
4808;SDS011;2418;49.930;8.606;2022-07-30T08:31:44;13.93;;;10.45;;
4808;SDS011;2418;49.930;8.606;2022-07-30T08:34:10;12.35;;;11.05;;
4808;SDS011;2418;49.930;8.606;2022-07-30T08:36:37;14.15;;;9.43;;
4808;SDS011;2418;49.930;8.606;2022-07-30T08:39:03;13.07;;;10.25;;
4808;SDS011;2418;49.930;8.606;2022-07-30T08:41:29;16.13;;;9.83;;
4808;SDS011;2418;49.930;8.606;2022-07-30T08:43:55;15.75;;;10.70;;
4808;SDS011;2418;49.930;8.606;2022-07-30T08:46:23;16.20;;;11.30;;
4808;SDS011;2418;49.930;8.606;2022-07-30T08:48:51;12.30;;;10.05;;
4808;SDS011;2418;49.930;8.606;2022-07-30T08:51:18;13.52;;;11.35;;
4808;SDS011;2418;49.930;8.606;2022-07-30T08:53:44;14.18;;;11.10;;
4808;SDS011;2418;49.930;8.606;2022-07-30T08:56:10;13.25;;;11.18;;
4808;SDS011;2418;49.930;8.606;2022-07-30T08:58:37;15.43;;;10.70;;
4808;SDS011;2418;49.930;8.606;2022-07-30T09:01:03;15.52;;;12.23;;
4808;SDS011;2418;49.930;8.606;2022-07-30T09:03:30;17.10;;;12.83;;
4808;SDS011;2418;49.930;8.606;2022-07-30T09:05:56;17.55;;;11.63;;
4808;SDS011;2418;49.930;8.606;2022-07-30T09:08:23;17.10;;;10.80;;
4808;SDS011;2418;49.930;8.606;2022-07-30T09:10:49;17.13;;;11.57;;
4808;SDS011;2418;49.930;8.606;2022-07-30T09:13:28;12.10;;;10.20;;
4808;SDS011;2418;49.930;8.606;2022-07-30T09:15:54;15.20;;;12.27;;
4808;SDS011;2418;49.930;8.606;2022-07-30T09:18:34;13.98;;;11.07;;
4808;SDS011;2418;49.930;8.606;2022-07-30T09:21:01;9.75;;;8.82;;
4808;SDS011;2418;49.930;8.606;2022-07-30T09:23:38;10.88;;;9.15;;
4808;SDS011;2418;49.930;8.606;2022-07-30T09:26:04;11.25;;;8.55;;
4808;SDS011;2418;49.930;8.606;2022-07-30T09:28:30;8.95;;;7.97;;
4808;SDS011;2418;49.930;8.606;2022-07-30T09:30:57;11.25;;;8.32;;
4808;SDS011;2418;49.930;8.606;2022-07-30T09:33:31;11.05;;;7.22;;
4808;SDS011;2418;49.930;8.606;2022-07-30T09:35:57;6.90;;;6.30;;
4808;SDS011;2418;49.930;8.606;2022-07-30T09:38:23;9.23;;;8.10;;
4808;SDS011;2418;49.930;8.606;2022-07-30T09:40:50;11.85;;;8.75;;
4808;SDS011;2418;49.930;8.606;2022-07-30T09:43:17;7.97;;;7.15;;
4808;SDS011;2418;49.930;8.606;2022-07-30T09:45:53;7.25;;;6.65;;
4808;SDS011;2418;49.930;8.606;2022-07-30T09:48:22;8.60;;;6.78;;
4808;SDS011;2418;49.930;8.606;2022-07-30T09:50:48;13.90;;;6.20;;
4808;SDS011;2418;49.930;8.606;2022-07-30T09:53:14;7.00;;;6.15;;
4808;SDS011;2418;49.930;8.606;2022-07-30T09:55:41;5.55;;;5.18;;
4808;SDS011;2418;49.930;8.606;2022-07-30T09:58:07;5.50;;;5.20;;
4808;SDS011;2418;49.930;8.606;2022-07-30T10:00:35;4.65;;;4.30;;
4808;SDS011;2418;49.930;8.606;2022-07-30T10:03:23;3.30;;;3.13;;
4808;SDS011;2418;49.930;8.606;2022-07-30T10:08:17;4.72;;;4.32;;
4808;SDS011;2418;49.930;8.606;2022-07-30T10:10:43;6.00;;;5.07;;
4808;SDS011;2418;49.930;8.606;2022-07-30T10:13:10;5.22;;;4.90;;
4808;SDS011;2418;49.930;8.606;2022-07-30T10:15:37;6.80;;;4.55;;
4808;SDS011;2418;49.930;8.606;2022-07-30T10:18:04;3.83;;;3.10;;
4808;SDS011;2418;49.930;8.606;2022-07-30T10:20:30;4.28;;;3.10;;
4808;SDS011;2418;49.930;8.606;2022-07-30T10:22:56;4.20;;;2.50;;
4808;SDS011;2418;49.930;8.606;2022-07-30T10:25:23;7.18;;;4.97;;
4808;SDS011;2418;49.930;8.606;2022-07-30T10:27:50;6.35;;;5.05;;
4808;SDS011;2418;49.930;8.606;2022-07-30T10:30:16;5.30;;;2.92;;
4808;SDS011;2418;49.930;8.606;2022-07-30T10:32:43;3.20;;;3.00;;
4808;SDS011;2418;49.930;8.606;2022-07-30T10:35:09;7.80;;;3.30;;
4808;SDS011;2418;49.930;8.606;2022-07-30T10:37:36;3.30;;;3.20;;
4808;SDS011;2418;49.930;8.606;2022-07-30T10:40:09;3.30;;;3.10;;
4808;SDS011;2418;49.930;8.606;2022-07-30T10:42:48;3.50;;;3.10;;
4808;SDS011;2418;49.930;8.606;2022-07-30T10:45:18;3.80;;;2.40;;
4808;SDS011;2418;49.930;8.606;2022-07-30T10:47:47;3.20;;;2.90;;
4808;SDS011;2418;49.930;8.606;2022-07-30T10:50:14;3.00;;;2.67;;
4808;SDS011;2418;49.930;8.606;2022-07-30T10:52:58;5.93;;;2.45;;
4808;SDS011;2418;49.930;8.606;2022-07-30T10:55:32;2.90;;;2.73;;
4808;SDS011;2418;49.930;8.606;2022-07-30T10:58:05;2.20;;;2.10;;
4808;SDS011;2418;49.930;8.606;2022-07-30T11:00:32;2.10;;;2.00;;
4808;SDS011;2418;49.930;8.606;2022-07-30T11:05:37;6.40;;;2.10;;
4808;SDS011;2418;49.930;8.606;2022-07-30T11:10:49;2.33;;;2.13;;
4808;SDS011;2418;49.930;8.606;2022-07-30T11:13:15;4.57;;;1.95;;
4808;SDS011;2418;49.930;8.606;2022-07-30T11:15:51;1.90;;;1.90;;
4808;SDS011;2418;49.930;8.606;2022-07-30T11:18:21;2.30;;;2.05;;
4808;SDS011;2418;49.930;8.606;2022-07-30T11:23:36;3.10;;;1.90;;
4808;SDS011;2418;49.930;8.606;2022-07-30T11:26:03;6.38;;;4.15;;
4808;SDS011;2418;49.930;8.606;2022-07-30T11:28:44;2.80;;;2.60;;
4808;SDS011;2418;49.930;8.606;2022-07-30T11:44:49;1.90;;;1.80;;
4808;SDS011;2418;49.930;8.606;2022-07-30T11:47:15;1.80;;;1.70;;
4808;SDS011;2418;49.930;8.606;2022-07-30T11:49:41;1.90;;;1.80;;
4808;SDS011;2418;49.930;8.606;2022-07-30T11:52:07;2.03;;;1.92;;
4808;SDS011;2418;49.930;8.606;2022-07-30T11:54:48;2.10;;;1.63;;
4808;SDS011;2418;49.930;8.606;2022-07-30T11:57:15;4.00;;;2.20;;
4808;SDS011;2418;49.930;8.606;2022-07-30T11:59:53;2.13;;;2.13;;
4808;SDS011;2418;49.930;8.606;2022-07-30T12:02:25;3.40;;;1.98;;
4808;SDS011;2418;49.930;8.606;2022-07-30T12:04:51;2.10;;;1.90;;
4808;SDS011;2418;49.930;8.606;2022-07-30T12:07:21;2.55;;;2.00;;
4808;SDS011;2418;49.930;8.606;2022-07-30T12:09:47;3.33;;;1.90;;
4808;SDS011;2418;49.930;8.606;2022-07-30T12:12:20;5.00;;;2.00;;
4808;SDS011;2418;49.930;8.606;2022-07-30T12:14:49;1.98;;;1.88;;
4808;SDS011;2418;49.930;8.606;2022-07-30T12:17:15;2.00;;;1.90;;
4808;SDS011;2418;49.930;8.606;2022-07-30T12:19:42;2.60;;;2.20;;
4808;SDS011;2418;49.930;8.606;2022-07-30T12:22:09;5.40;;;2.00;;
4808;SDS011;2418;49.930;8.606;2022-07-30T12:24:34;4.00;;;2.10;;
4808;SDS011;2418;49.930;8.606;2022-07-30T12:27:04;2.10;;;2.00;;
4808;SDS011;2418;49.930;8.606;2022-07-30T12:29:33;2.03;;;1.92;;
4808;SDS011;2418;49.930;8.606;2022-07-30T12:32:00;1.80;;;1.80;;
4808;SDS011;2418;49.930;8.606;2022-07-30T12:34:26;2.20;;;2.20;;
4808;SDS011;2418;49.930;8.606;2022-07-30T12:36:52;3.53;;;2.33;;
4808;SDS011;2418;49.930;8.606;2022-07-30T12:39:20;2.30;;;2.20;;
4808;SDS011;2418;49.930;8.606;2022-07-30T12:41:47;2.33;;;2.13;;
4808;SDS011;2418;49.930;8.606;2022-07-30T12:44:32;5.30;;;1.80;;
4808;SDS011;2418;49.930;8.606;2022-07-30T12:46:58;2.20;;;2.10;;
4808;SDS011;2418;49.930;8.606;2022-07-30T12:49:28;2.70;;;1.83;;
4808;SDS011;2418;49.930;8.606;2022-07-30T12:51:54;1.90;;;1.80;;
4808;SDS011;2418;49.930;8.606;2022-07-30T12:54:20;7.10;;;2.50;;
4808;SDS011;2418;49.930;8.606;2022-07-30T12:56:59;2.95;;;2.10;;
4808;SDS011;2418;49.930;8.606;2022-07-30T12:59:25;2.40;;;1.90;;
4808;SDS011;2418;49.930;8.606;2022-07-30T13:01:52;2.03;;;1.92;;
4808;SDS011;2418;49.930;8.606;2022-07-30T13:04:18;2.70;;;1.90;;
4808;SDS011;2418;49.930;8.606;2022-07-30T13:07:01;2.33;;;2.00;;
4808;SDS011;2418;49.930;8.606;2022-07-30T13:09:27;2.15;;;1.70;;
4808;SDS011;2418;49.930;8.606;2022-07-30T13:11:53;2.00;;;1.80;;
4808;SDS011;2418;49.930;8.606;2022-07-30T13:14:19;2.70;;;1.93;;
4808;SDS011;2418;49.930;8.606;2022-07-30T13:16:45;2.30;;;2.10;;
4808;SDS011;2418;49.930;8.606;2022-07-30T13:19:11;1.93;;;1.83;;
4808;SDS011;2418;49.930;8.606;2022-07-30T13:21:40;2.90;;;2.20;;
4808;SDS011;2418;49.930;8.606;2022-07-30T13:24:07;1.80;;;1.70;;
4808;SDS011;2418;49.930;8.606;2022-07-30T13:26:34;2.30;;;1.60;;
4808;SDS011;2418;49.930;8.606;2022-07-30T13:29:00;2.97;;;1.70;;
4808;SDS011;2418;49.930;8.606;2022-07-30T13:31:26;2.00;;;1.80;;
4808;SDS011;2418;49.930;8.606;2022-07-30T13:33:52;2.08;;;1.98;;
4808;SDS011;2418;49.930;8.606;2022-07-30T13:36:18;2.42;;;2.33;;
4808;SDS011;2418;49.930;8.606;2022-07-30T13:38:45;1.80;;;1.70;;
4808;SDS011;2418;49.930;8.606;2022-07-30T13:41:11;2.30;;;2.05;;
4808;SDS011;2418;49.930;8.606;2022-07-30T13:43:37;3.17;;;1.65;;
4808;SDS011;2418;49.930;8.606;2022-07-30T13:46:03;2.00;;;1.90;;
4808;SDS011;2418;49.930;8.606;2022-07-30T13:48:30;2.60;;;1.95;;
4808;SDS011;2418;49.930;8.606;2022-07-30T13:50:56;3.07;;;1.50;;
4808;SDS011;2418;49.930;8.606;2022-07-30T13:53:22;2.20;;;1.83;;
4808;SDS011;2418;49.930;8.606;2022-07-30T13:55:48;3.50;;;2.10;;
4808;SDS011;2418;49.930;8.606;2022-07-30T13:58:14;1.87;;;1.77;;
4808;SDS011;2418;49.930;8.606;2022-07-30T14:00:39;4.82;;;2.25;;
4808;SDS011;2418;49.930;8.606;2022-07-30T14:03:09;1.95;;;1.75;;
4808;SDS011;2418;49.930;8.606;2022-07-30T14:05:35;2.45;;;2.10;;
4808;SDS011;2418;49.930;8.606;2022-07-30T14:08:02;3.80;;;1.52;;
4808;SDS011;2418;49.930;8.606;2022-07-30T14:10:28;1.70;;;1.60;;
4808;SDS011;2418;49.930;8.606;2022-07-30T14:12:55;1.95;;;1.70;;
4808;SDS011;2418;49.930;8.606;2022-07-30T14:15:24;2.00;;;1.90;;
4808;SDS011;2418;49.930;8.606;2022-07-30T14:17:50;1.77;;;1.77;;
4808;SDS011;2418;49.930;8.606;2022-07-30T14:20:18;5.38;;;1.90;;
4808;SDS011;2418;49.930;8.606;2022-07-30T14:22:44;2.00;;;1.90;;
4808;SDS011;2418;49.930;8.606;2022-07-30T14:25:10;3.30;;;1.90;;
4808;SDS011;2418;49.930;8.606;2022-07-30T14:27:37;4.15;;;2.08;;
4808;SDS011;2418;49.930;8.606;2022-07-30T14:30:04;4.20;;;2.00;;
4808;SDS011;2418;49.930;8.606;2022-07-30T14:32:30;2.40;;;1.42;;
4808;SDS011;2418;49.930;8.606;2022-07-30T14:34:56;1.50;;;1.42;;
4808;SDS011;2418;49.930;8.606;2022-07-30T14:37:22;2.20;;;1.70;;
4808;SDS011;2418;49.930;8.606;2022-07-30T14:39:48;1.73;;;1.40;;
4808;SDS011;2418;49.930;8.606;2022-07-30T14:42:14;1.20;;;1.20;;
4808;SDS011;2418;49.930;8.606;2022-07-30T14:44:41;3.20;;;1.40;;
4808;SDS011;2418;49.930;8.606;2022-07-30T14:47:06;1.30;;;1.20;;
4808;SDS011;2418;49.930;8.606;2022-07-30T14:49:32;2.90;;;1.90;;
4808;SDS011;2418;49.930;8.606;2022-07-30T14:51:58;1.37;;;1.20;;
4808;SDS011;2418;49.930;8.606;2022-07-30T14:54:25;2.03;;;1.43;;
4808;SDS011;2418;49.930;8.606;2022-07-30T14:56:52;1.20;;;1.20;;
4808;SDS011;2418;49.930;8.606;2022-07-30T14:59:18;1.70;;;1.25;;
4808;SDS011;2418;49.930;8.606;2022-07-30T15:01:44;1.70;;;1.60;;
4808;SDS011;2418;49.930;8.606;2022-07-30T15:04:11;1.25;;;1.20;;
4808;SDS011;2418;49.930;8.606;2022-07-30T15:06:37;1.20;;;1.10;;
4808;SDS011;2418;49.930;8.606;2022-07-30T15:09:04;1.70;;;1.30;;
4808;SDS011;2418;49.930;8.606;2022-07-30T15:11:30;4.03;;;1.50;;
4808;SDS011;2418;49.930;8.606;2022-07-30T15:13:56;4.00;;;1.33;;
4808;SDS011;2418;49.930;8.606;2022-07-30T15:16:22;3.40;;;1.20;;
4808;SDS011;2418;49.930;8.606;2022-07-30T15:18:48;1.30;;;1.20;;
4808;SDS011;2418;49.930;8.606;2022-07-30T15:21:14;3.90;;;1.30;;
4808;SDS011;2418;49.930;8.606;2022-07-30T15:23:41;1.10;;;1.10;;
4808;SDS011;2418;49.930;8.606;2022-07-30T15:26:10;5.63;;;1.10;;